Aviation Digital Data Service (ADDS)

Output produced by METARs form (2321 UTC 26 February 2020)
found at http://www.aviationweather.gov/metar/data/
 
KPOU 262253Z 33003KT 3SM BR OVC014 06/04 A2986 RMK AO2 SLP108 T00610044
KPOU 262155Z 2622/2718 VRB03KT 3SM BR FEW005 OVC015 
     FM270700 04010G18KT 2SM RA BR VCTS BKN007 OVC010CB WS020/13045KT 
     FM271200 23010G15KT P6SM BKN015 OVC030 
     FM271400 26015G25KT P6SM BKN040